logo
Search for airport 
image banner adimage banner adimage banner ad
image banner ad

LKZA - Zabreh

Located in Opava, Ostrava, Czech Republic

ICAO - LKZA, IATA - ZBE

Data provided by Airmate  

General information

Coordinates: N49°55'42" E18°4'42"
Elevation is 794 feet MSL.
 
View others Airports in Moravian-Silesian Region

Operational data

Special qualification required
Current time UTC:
Current local time:
Weather at : LKMT - Ostrava/Mosnov ( 26 km )
TAF: TAF LKMT 200500Z 2006/2106 20007KT 9999 OVC017 TEMPO 2006/2018 22011KT 7000 RA OVC009 PROB30 TEMPO 2010/2016 3000 SHRA BKN008CB BECMG 2018/2020 36015G25KT
View NOTAMs / SUP AIP / TFR affecting this airport [VIEW]
Communications frequencies: [VIEW]

Runways:

RWY identifierQFULength (ft)Width (ft)SurfaceLDA (ft)
10L00ASPH
28R00ASPH
10R2953197GRASS
28L2953197GRASS

Airport contact information

Address: Opava, Ostrava Czech Republic

Other aviation service providers

Flight schools

Pondus Air S.R.O.

Pondus Air S.R.O.
info@pondusair.cz+420607044226

Aviation club (not for profit)

Slezský Aeroklub Zábřeh

Slezský Aeroklub Zábřeh
aeroklub@lkza.cz+420553655077

Satellite view of LKZA